sensor_id;sensor_type;location;lat;lon;timestamp;pressure;altitude;pressure_sealevel;temperature;humidity
8318;BME280;4196;48.926;8.964;2022-11-28T00:00:50;98942.19;;;3.86;100.00
8318;BME280;4196;48.926;8.964;2022-11-28T00:03:38;98952.66;;;3.95;100.00
8318;BME280;4196;48.926;8.964;2022-11-28T00:06:26;98948.53;;;4.02;100.00
8318;BME280;4196;48.926;8.964;2022-11-28T00:09:14;98944.91;;;3.92;100.00
8318;BME280;4196;48.926;8.964;2022-11-28T00:12:02;98939.78;;;3.92;100.00
8318;BME280;4196;48.926;8.964;2022-11-28T00:14:49;98935.34;;;3.85;100.00
8318;BME280;4196;48.926;8.964;2022-11-28T00:17:35;98946.44;;;3.85;100.00
8318;BME280;4196;48.926;8.964;2022-11-28T00:20:21;98941.38;;;3.87;100.00
8318;BME280;4196;48.926;8.964;2022-11-28T00:23:08;98935.56;;;3.94;100.00
8318;BME280;4196;48.926;8.964;2022-11-28T00:25:59;98941.56;;;3.96;100.00
8318;BME280;4196;48.926;8.964;2022-11-28T00:28:46;98930.25;;;3.86;100.00
8318;BME280;4196;48.926;8.964;2022-11-28T00:31:35;98932.84;;;3.88;100.00
8318;BME280;4196;48.926;8.964;2022-11-28T00:34:28;98937.31;;;3.97;100.00
8318;BME280;4196;48.926;8.964;2022-11-28T00:37:14;98932.84;;;3.88;100.00
8318;BME280;4196;48.926;8.964;2022-11-28T00:40:01;98914.00;;;3.84;100.00
8318;BME280;4196;48.926;8.964;2022-11-28T00:42:47;98920.44;;;4.06;100.00
8318;BME280;4196;48.926;8.964;2022-11-28T00:45:34;98928.69;;;3.93;100.00
8318;BME280;4196;48.926;8.964;2022-11-28T00:48:20;98919.97;;;3.83;100.00
8318;BME280;4196;48.926;8.964;2022-11-28T00:53:56;98913.63;;;3.68;100.00
8318;BME280;4196;48.926;8.964;2022-11-28T00:56:43;98921.97;;;3.60;100.00
8318;BME280;4196;48.926;8.964;2022-11-28T00:59:30;98914.03;;;3.48;100.00
8318;BME280;4196;48.926;8.964;2022-11-28T01:02:16;98913.34;;;3.55;100.00
8318;BME280;4196;48.926;8.964;2022-11-28T01:05:03;98905.56;;;3.51;100.00
8318;BME280;4196;48.926;8.964;2022-11-28T01:07:50;98899.78;;;3.59;100.00
8318;BME280;4196;48.926;8.964;2022-11-28T01:10:41;98892.88;;;3.57;100.00
8318;BME280;4196;48.926;8.964;2022-11-28T01:13:27;98884.50;;;3.62;100.00
8318;BME280;4196;48.926;8.964;2022-11-28T01:16:15;98872.31;;;3.52;100.00
8318;BME280;4196;48.926;8.964;2022-11-28T01:19:01;98872.78;;;3.74;100.00
8318;BME280;4196;48.926;8.964;2022-11-28T01:21:48;98862.41;;;3.68;100.00
8318;BME280;4196;48.926;8.964;2022-11-28T01:24:35;98866.94;;;3.79;100.00
8318;BME280;4196;48.926;8.964;2022-11-28T01:27:21;98859.03;;;3.69;100.00
8318;BME280;4196;48.926;8.964;2022-11-28T01:30:08;98880.31;;;3.66;100.00
8318;BME280;4196;48.926;8.964;2022-11-28T01:32:54;98856.88;;;3.48;100.00
8318;BME280;4196;48.926;8.964;2022-11-28T01:35:52;98879.22;;;3.55;100.00
8318;BME280;4196;48.926;8.964;2022-11-28T01:38:40;98857.47;;;3.36;100.00
8318;BME280;4196;48.926;8.964;2022-11-28T01:41:27;98882.31;;;3.42;100.00
8318;BME280;4196;48.926;8.964;2022-11-28T01:47:00;98895.91;;;3.39;100.00
8318;BME280;4196;48.926;8.964;2022-11-28T01:49:48;98894.09;;;3.35;100.00
8318;BME280;4196;48.926;8.964;2022-11-28T01:52:37;98883.84;;;3.35;100.00
8318;BME280;4196;48.926;8.964;2022-11-28T01:55:29;98872.19;;;3.46;100.00
8318;BME280;4196;48.926;8.964;2022-11-28T01:58:16;98874.03;;;3.53;100.00
8318;BME280;4196;48.926;8.964;2022-11-28T02:01:04;98846.19;;;3.28;100.00
8318;BME280;4196;48.926;8.964;2022-11-28T02:03:53;98852.16;;;3.28;100.00
8318;BME280;4196;48.926;8.964;2022-11-28T02:06:40;98834.28;;;3.30;100.00
8318;BME280;4196;48.926;8.964;2022-11-28T02:09:27;98841.53;;;3.49;100.00
8318;BME280;4196;48.926;8.964;2022-11-28T02:12:34;98831.50;;;3.58;100.00
8318;BME280;4196;48.926;8.964;2022-11-28T02:21:58;98814.81;;;3.76;100.00
8318;BME280;4196;48.926;8.964;2022-11-28T02:25:11;98799.38;;;3.73;100.00
8318;BME280;4196;48.926;8.964;2022-11-28T02:35:07;98838.41;;;4.03;100.00
8318;BME280;4196;48.926;8.964;2022-11-28T02:41:06;98831.81;;;3.74;100.00
8318;BME280;4196;48.926;8.964;2022-11-28T02:44:08;98831.81;;;3.74;100.00
8318;BME280;4196;48.926;8.964;2022-11-28T02:52:41;98759.50;;;3.43;100.00
8318;BME280;4196;48.926;8.964;2022-11-28T02:55:30;98764.72;;;3.46;100.00
8318;BME280;4196;48.926;8.964;2022-11-28T02:58:18;98783.72;;;3.57;100.00
8318;BME280;4196;48.926;8.964;2022-11-28T03:01:08;98793.03;;;3.55;100.00
8318;BME280;4196;48.926;8.964;2022-11-28T03:04:12;98775.50;;;3.74;100.00
8318;BME280;4196;48.926;8.964;2022-11-28T03:07:15;98807.00;;;3.70;100.00
8318;BME280;4196;48.926;8.964;2022-11-28T03:16:36;98807.69;;;3.62;100.00
8318;BME280;4196;48.926;8.964;2022-11-28T03:19:33;98809.22;;;3.54;100.00
8318;BME280;4196;48.926;8.964;2022-11-28T03:22:57;98793.97;;;3.60;100.00
8318;BME280;4196;48.926;8.964;2022-11-28T03:25:59;98774.81;;;3.40;100.00
8318;BME280;4196;48.926;8.964;2022-11-28T03:28:54;98794.53;;;3.46;100.00
8318;BME280;4196;48.926;8.964;2022-11-28T03:31:46;98779.06;;;3.39;100.00
8318;BME280;4196;48.926;8.964;2022-11-28T03:34:37;98765.75;;;3.56;100.00
8318;BME280;4196;48.926;8.964;2022-11-28T03:37:29;98766.78;;;3.66;100.00
8318;BME280;4196;48.926;8.964;2022-11-28T03:40:25;98764.31;;;3.70;100.00
8318;BME280;4196;48.926;8.964;2022-11-28T03:43:26;98786.44;;;3.67;100.00
8318;BME280;4196;48.926;8.964;2022-11-28T03:46:18;98783.91;;;3.68;100.00
8318;BME280;4196;48.926;8.964;2022-11-28T03:49:07;98773.13;;;3.42;100.00
8318;BME280;4196;48.926;8.964;2022-11-28T03:52:07;98777.16;;;3.31;100.00
8318;BME280;4196;48.926;8.964;2022-11-28T03:55:05;98762.84;;;3.39;100.00
8318;BME280;4196;48.926;8.964;2022-11-28T03:58:04;98771.78;;;3.20;100.00
8318;BME280;4196;48.926;8.964;2022-11-28T04:03:54;98776.19;;;3.26;100.00
8318;BME280;4196;48.926;8.964;2022-11-28T04:06:57;98775.94;;;3.13;100.00
8318;BME280;4196;48.926;8.964;2022-11-28T04:10:35;98784.38;;;3.09;100.00
8318;BME280;4196;48.926;8.964;2022-11-28T04:19:10;98758.84;;;3.12;100.00
8318;BME280;4196;48.926;8.964;2022-11-28T04:22:03;98751.66;;;2.96;100.00
8318;BME280;4196;48.926;8.964;2022-11-28T04:24:53;98754.25;;;2.98;100.00
8318;BME280;4196;48.926;8.964;2022-11-28T04:27:46;98765.47;;;3.04;100.00
8318;BME280;4196;48.926;8.964;2022-11-28T04:30:38;98765.06;;;3.24;100.00
8318;BME280;4196;48.926;8.964;2022-11-28T04:33:27;98761.28;;;3.06;100.00
8318;BME280;4196;48.926;8.964;2022-11-28T04:36:18;98753.59;;;3.06;100.00
8318;BME280;4196;48.926;8.964;2022-11-28T04:39:08;98765.88;;;3.21;100.00
8318;BME280;4196;48.926;8.964;2022-11-28T04:42:34;98773.63;;;3.26;100.00
8318;BME280;4196;48.926;8.964;2022-11-28T04:45:13;98774.59;;;3.31;100.00
8318;BME280;4196;48.926;8.964;2022-11-28T04:48:02;98781.50;;;3.35;100.00
8318;BME280;4196;48.926;8.964;2022-11-28T04:50:55;98787.53;;;3.37;100.00
8318;BME280;4196;48.926;8.964;2022-11-28T04:57:06;98710.06;;;2.65;100.00
8318;BME280;4196;48.926;8.964;2022-11-28T04:59:56;98772.91;;;2.94;100.00
8318;BME280;4196;48.926;8.964;2022-11-28T05:02:45;98770.28;;;2.90;100.00
8318;BME280;4196;48.926;8.964;2022-11-28T05:05:42;98769.06;;;2.75;100.00
8318;BME280;4196;48.926;8.964;2022-11-28T05:08:29;98769.28;;;2.84;100.00
8318;BME280;4196;48.926;8.964;2022-11-28T05:11:15;98776.56;;;3.03;100.00
8318;BME280;4196;48.926;8.964;2022-11-28T05:14:02;98749.81;;;2.89;100.00
8318;BME280;4196;48.926;8.964;2022-11-28T05:16:48;98745.84;;;2.65;100.00
8318;BME280;4196;48.926;8.964;2022-11-28T05:19:35;98773.25;;;2.71;100.00
8318;BME280;4196;48.926;8.964;2022-11-28T05:22:22;98746.34;;;2.51;100.00
8318;BME280;4196;48.926;8.964;2022-11-28T05:25:09;98781.78;;;2.72;100.00
8318;BME280;4196;48.926;8.964;2022-11-28T05:27:55;98779.84;;;2.61;100.00
8318;BME280;4196;48.926;8.964;2022-11-28T05:30:42;98755.47;;;2.41;100.00
8318;BME280;4196;48.926;8.964;2022-11-28T05:33:29;98769.47;;;2.57;100.00
8318;BME280;4196;48.926;8.964;2022-11-28T05:36:16;98778.94;;;2.59;100.00
8318;BME280;4196;48.926;8.964;2022-11-28T05:39:03;98759.81;;;2.44;100.00
8318;BME280;4196;48.926;8.964;2022-11-28T05:41:50;98781.31;;;2.53;100.00
8318;BME280;4196;48.926;8.964;2022-11-28T05:44:36;98786.69;;;2.62;100.00
8318;BME280;4196;48.926;8.964;2022-11-28T05:47:23;98789.03;;;2.55;100.00
8318;BME280;4196;48.926;8.964;2022-11-28T05:50:10;98795.97;;;2.60;100.00
8318;BME280;4196;48.926;8.964;2022-11-28T05:52:59;98785.25;;;2.74;100.00
8318;BME280;4196;48.926;8.964;2022-11-28T05:55:46;98797.78;;;2.64;100.00
8318;BME280;4196;48.926;8.964;2022-11-28T05:58:33;98787.28;;;2.54;100.00
8318;BME280;4196;48.926;8.964;2022-11-28T06:01:25;98779.25;;;2.38;100.00
8318;BME280;4196;48.926;8.964;2022-11-28T06:04:12;98786.75;;;2.65;100.00
8318;BME280;4196;48.926;8.964;2022-11-28T06:06:58;98785.09;;;2.67;100.00
8318;BME280;4196;48.926;8.964;2022-11-28T06:09:45;98784.97;;;2.61;100.00
8318;BME280;4196;48.926;8.964;2022-11-28T06:12:32;98783.00;;;2.51;100.00
8318;BME280;4196;48.926;8.964;2022-11-28T06:15:19;98785.09;;;2.67;100.00
8318;BME280;4196;48.926;8.964;2022-11-28T06:18:05;98766.75;;;2.49;100.00
8318;BME280;4196;48.926;8.964;2022-11-28T06:20:52;98771.75;;;2.45;100.00
8318;BME280;4196;48.926;8.964;2022-11-28T06:23:39;98781.00;;;2.39;100.00
8318;BME280;4196;48.926;8.964;2022-11-28T06:26:27;98769.28;;;2.49;100.00
8318;BME280;4196;48.926;8.964;2022-11-28T06:29:14;98784.56;;;2.46;100.00
8318;BME280;4196;48.926;8.964;2022-11-28T06:32:00;98779.38;;;2.43;100.00
8318;BME280;4196;48.926;8.964;2022-11-28T06:34:47;98779.31;;;2.40;100.00
8318;BME280;4196;48.926;8.964;2022-11-28T06:37:33;98777.50;;;2.36;100.00
8318;BME280;4196;48.926;8.964;2022-11-28T06:40:20;98782.81;;;2.45;100.00
8318;BME280;4196;48.926;8.964;2022-11-28T06:43:06;98759.63;;;2.36;100.00
8318;BME280;4196;48.926;8.964;2022-11-28T06:45:53;98770.13;;;2.48;100.00
8318;BME280;4196;48.926;8.964;2022-11-28T06:48:39;98759.66;;;2.37;100.00
8318;BME280;4196;48.926;8.964;2022-11-28T06:51:26;98761.75;;;2.54;100.00
8318;BME280;4196;48.926;8.964;2022-11-28T06:54:13;98764.97;;;2.47;100.00
8318;BME280;4196;48.926;8.964;2022-11-28T06:57:00;98763.97;;;2.40;100.00
8318;BME280;4196;48.926;8.964;2022-11-28T06:59:47;98772.19;;;2.61;100.00
8318;BME280;4196;48.926;8.964;2022-11-28T07:02:34;98767.09;;;2.64;100.00
8318;BME280;4196;48.926;8.964;2022-11-28T07:05:21;98764.91;;;2.80;100.00
8318;BME280;4196;48.926;8.964;2022-11-28T07:08:08;98783.03;;;2.89;100.00
8318;BME280;4196;48.926;8.964;2022-11-28T07:10:55;98784.38;;;2.73;100.00
8318;BME280;4196;48.926;8.964;2022-11-28T07:13:43;98781.69;;;2.69;100.00
8318;BME280;4196;48.926;8.964;2022-11-28T07:16:32;98788.63;;;2.73;100.00
8318;BME280;4196;48.926;8.964;2022-11-28T07:19:19;98799.53;;;2.65;100.00
8318;BME280;4196;48.926;8.964;2022-11-28T07:22:09;98796.06;;;2.63;100.00
8318;BME280;4196;48.926;8.964;2022-11-28T07:24:59;98810.34;;;2.55;100.00
8318;BME280;4196;48.926;8.964;2022-11-28T07:27:45;98816.31;;;2.56;100.00
8318;BME280;4196;48.926;8.964;2022-11-28T07:30:32;98815.84;;;2.71;100.00
8318;BME280;4196;48.926;8.964;2022-11-28T07:33:19;98803.97;;;2.73;100.00
8318;BME280;4196;48.926;8.964;2022-11-28T07:36:09;98797.03;;;2.69;100.00
8318;BME280;4196;48.926;8.964;2022-11-28T07:38:58;98807.66;;;2.84;100.00
8318;BME280;4196;48.926;8.964;2022-11-28T07:41:45;98800.88;;;2.86;100.00
8318;BME280;4196;48.926;8.964;2022-11-28T07:44:32;98798.97;;;2.79;100.00
8318;BME280;4196;48.926;8.964;2022-11-28T07:47:18;98773.06;;;2.63;100.00
8318;BME280;4196;48.926;8.964;2022-11-28T07:50:06;98795.50;;;3.11;100.00
8318;BME280;4196;48.926;8.964;2022-11-28T07:52:52;98793.41;;;3.33;100.00
8318;BME280;4196;48.926;8.964;2022-11-28T07:55:38;98803.75;;;3.37;100.00
8318;BME280;4196;48.926;8.964;2022-11-28T07:58:25;98789.38;;;3.44;100.00
8318;BME280;4196;48.926;8.964;2022-11-28T08:01:19;98784.78;;;3.28;100.00
8318;BME280;4196;48.926;8.964;2022-11-28T08:04:08;98796.28;;;3.48;100.00
8318;BME280;4196;48.926;8.964;2022-11-28T08:06:55;98771.47;;;3.44;100.00
8318;BME280;4196;48.926;8.964;2022-11-28T08:09:42;98800.88;;;3.63;100.00
8318;BME280;4196;48.926;8.964;2022-11-28T08:12:29;98794.97;;;3.67;100.00
8318;BME280;4196;48.926;8.964;2022-11-28T08:15:15;98769.94;;;3.52;100.00
8318;BME280;4196;48.926;8.964;2022-11-28T08:18:02;98797.53;;;3.66;100.00
8318;BME280;4196;48.926;8.964;2022-11-28T08:20:49;98804.50;;;3.74;100.00
8318;BME280;4196;48.926;8.964;2022-11-28T08:23:36;98802.75;;;3.72;100.00
8318;BME280;4196;48.926;8.964;2022-11-28T08:26:24;98803.53;;;3.68;100.00
8318;BME280;4196;48.926;8.964;2022-11-28T08:29:15;98793.81;;;3.51;100.00
8318;BME280;4196;48.926;8.964;2022-11-28T08:32:02;98803.19;;;3.51;100.00
8318;BME280;4196;48.926;8.964;2022-11-28T08:34:49;98797.13;;;3.47;100.00
8318;BME280;4196;48.926;8.964;2022-11-28T08:37:35;98793.81;;;3.53;100.00
8318;BME280;4196;48.926;8.964;2022-11-28T08:40:22;98799.31;;;3.70;100.00
8318;BME280;4196;48.926;8.964;2022-11-28T08:43:09;98794.97;;;3.67;100.00
8318;BME280;4196;48.926;8.964;2022-11-28T08:45:55;98790.78;;;3.71;100.00
8318;BME280;4196;48.926;8.964;2022-11-28T08:48:43;98794.50;;;3.85;100.00
8318;BME280;4196;48.926;8.964;2022-11-28T08:51:29;98795.63;;;3.99;100.00
8318;BME280;4196;48.926;8.964;2022-11-28T08:54:15;98793.28;;;4.11;100.00
8318;BME280;4196;48.926;8.964;2022-11-28T08:57:02;98805.31;;;4.16;100.00
8318;BME280;4196;48.926;8.964;2022-11-28T08:59:48;98805.44;;;4.20;100.00
8318;BME280;4196;48.926;8.964;2022-11-28T09:02:35;98801.22;;;4.25;100.00
8318;BME280;4196;48.926;8.964;2022-11-28T09:05:21;98777.00;;;4.08;100.00
8318;BME280;4196;48.926;8.964;2022-11-28T09:08:08;98791.97;;;4.32;100.00
8318;BME280;4196;48.926;8.964;2022-11-28T09:10:57;98804.19;;;4.47;100.00
8318;BME280;4196;48.926;8.964;2022-11-28T09:13:43;98801.56;;;4.44;100.00
8318;BME280;4196;48.926;8.964;2022-11-28T09:16:31;98791.19;;;4.38;100.00
8318;BME280;4196;48.926;8.964;2022-11-28T09:19:17;98772.19;;;4.25;100.00
8318;BME280;4196;48.926;8.964;2022-11-28T09:22:04;98782.56;;;4.31;100.00
8318;BME280;4196;48.926;8.964;2022-11-28T09:24:50;98763.19;;;4.48;100.00
8318;BME280;4196;48.926;8.964;2022-11-28T09:27:37;98788.31;;;4.69;100.00
8318;BME280;4196;48.926;8.964;2022-11-28T09:30:23;98799.63;;;4.82;100.00
8318;BME280;4196;48.926;8.964;2022-11-28T09:33:12;98772.16;;;4.75;100.00
8318;BME280;4196;48.926;8.964;2022-11-28T09:36:06;98801.84;;;5.14;100.00
8318;BME280;4196;48.926;8.964;2022-11-28T09:38:53;98798.38;;;5.12;100.00
8318;BME280;4196;48.926;8.964;2022-11-28T09:42:07;98813.94;;;5.21;100.00
8318;BME280;4196;48.926;8.964;2022-11-28T09:45:10;98804.34;;;5.11;100.00
8318;BME280;4196;48.926;8.964;2022-11-28T09:48:08;98807.94;;;5.22;100.00
8318;BME280;4196;48.926;8.964;2022-11-28T09:51:08;98815.69;;;5.26;100.00
8318;BME280;4196;48.926;8.964;2022-11-28T09:56:50;98793.34;;;5.18;100.00
8318;BME280;4196;48.926;8.964;2022-11-28T09:59:37;98817.78;;;5.50;100.00
8318;BME280;4196;48.926;8.964;2022-11-28T10:02:36;98810.00;;;5.47;100.00
8318;BME280;4196;48.926;8.964;2022-11-28T10:18:08;98785.50;;;5.71;100.00
8318;BME280;4196;48.926;8.964;2022-11-28T10:21:21;98788.03;;;5.68;100.00
8318;BME280;4196;48.926;8.964;2022-11-28T10:24:25;98787.53;;;5.95;100.00
8318;BME280;4196;48.926;8.964;2022-11-28T10:27:14;98784.19;;;6.00;100.00
8318;BME280;4196;48.926;8.964;2022-11-28T10:30:29;98772.16;;;5.99;100.00
8318;BME280;4196;48.926;8.964;2022-11-28T10:33:22;98785.91;;;6.01;100.00
8318;BME280;4196;48.926;8.964;2022-11-28T10:36:23;98774.94;;;6.19;100.00
8318;BME280;4196;48.926;8.964;2022-11-28T10:39:12;98787.22;;;6.46;100.00
8318;BME280;4196;48.926;8.964;2022-11-28T10:42:12;98777.84;;;6.53;100.00
8318;BME280;4196;48.926;8.964;2022-11-28T10:48:07;98782.94;;;6.48;100.00
8318;BME280;4196;48.926;8.964;2022-11-28T10:58:23;98771.13;;;6.72;100.00
8318;BME280;4196;48.926;8.964;2022-11-28T11:01:12;98776.28;;;6.72;100.00
8318;BME280;4196;48.926;8.964;2022-11-28T11:03:59;98784.84;;;6.71;100.00
8318;BME280;4196;48.926;8.964;2022-11-28T11:07:23;98775.47;;;6.81;100.00
8318;BME280;4196;48.926;8.964;2022-11-28T11:10:44;98774.50;;;6.65;100.00
8318;BME280;4196;48.926;8.964;2022-11-28T11:13:54;98743.34;;;6.31;100.00
8318;BME280;4196;48.926;8.964;2022-11-28T11:19:38;98759.03;;;6.62;100.00
8318;BME280;4196;48.926;8.964;2022-11-28T11:22:27;98758.28;;;6.73;100.00
8318;BME280;4196;48.926;8.964;2022-11-28T11:25:17;98755.00;;;6.93;100.00
8318;BME280;4196;48.926;8.964;2022-11-28T11:28:05;98761.00;;;6.93;100.00
8318;BME280;4196;48.926;8.964;2022-11-28T11:31:03;98763.59;;;6.99;100.00
8318;BME280;4196;48.926;8.964;2022-11-28T11:33:59;98750.66;;;6.87;100.00
8318;BME280;4196;48.926;8.964;2022-11-28T11:36:46;98759.38;;;7.05;100.00
8318;BME280;4196;48.926;8.964;2022-11-28T11:39:35;98756.81;;;7.09;100.00
8318;BME280;4196;48.926;8.964;2022-11-28T11:42:31;98749.97;;;7.13;100.00
8318;BME280;4196;48.926;8.964;2022-11-28T11:48:11;98763.75;;;7.19;100.00
8318;BME280;4196;48.926;8.964;2022-11-28T11:50:59;98749.91;;;7.00;100.00
8318;BME280;4196;48.926;8.964;2022-11-28T11:53:45;98744.84;;;7.14;100.00
8318;BME280;4196;48.926;8.964;2022-11-28T11:56:37;98745.66;;;7.09;100.00
8318;BME280;4196;48.926;8.964;2022-11-28T12:05:12;98742.22;;;7.05;100.00
8318;BME280;4196;48.926;8.964;2022-11-28T12:26:43;98726.16;;;7.58;100.00
8318;BME280;4196;48.926;8.964;2022-11-28T12:39:15;98720.25;;;7.91;100.00
8318;BME280;4196;48.926;8.964;2022-11-28T13:00:09;98713.38;;;7.84;100.00
8318;BME280;4196;48.926;8.964;2022-11-28T13:09:26;98702.22;;;8.05;100.00
8318;BME280;4196;48.926;8.964;2022-11-28T13:12:46;98697.13;;;8.22;100.00
8318;BME280;4196;48.926;8.964;2022-11-28T13:18:56;98685.94;;;8.35;100.00
8318;BME280;4196;48.926;8.964;2022-11-28T13:21:51;98689.38;;;8.34;100.00
8318;BME280;4196;48.926;8.964;2022-11-28T13:28:12;98683.38;;;8.32;100.00
8318;BME280;4196;48.926;8.964;2022-11-28T13:31:19;98675.63;;;8.11;100.00
8318;BME280;4196;48.926;8.964;2022-11-28T13:34:14;98676.47;;;8.17;100.00
8318;BME280;4196;48.926;8.964;2022-11-28T13:46:24;98683.34;;;8.15;100.00
8318;BME280;4196;48.926;8.964;2022-11-28T13:49:22;98682.47;;;8.07;100.00
8318;BME280;4196;48.926;8.964;2022-11-28T13:58:33;98688.47;;;7.94;100.00
8318;BME280;4196;48.926;8.964;2022-11-28T14:01:27;98670.41;;;7.77;100.00
8318;BME280;4196;48.926;8.964;2022-11-28T14:04:17;98688.47;;;7.92;100.00
8318;BME280;4196;48.926;8.964;2022-11-28T14:07:06;98682.44;;;7.90;100.00
8318;BME280;4196;48.926;8.964;2022-11-28T14:10:27;98680.75;;;7.92;100.00
8318;BME280;4196;48.926;8.964;2022-11-28T14:16:49;98682.44;;;7.78;100.00
8318;BME280;4196;48.926;8.964;2022-11-28T14:23:03;98677.31;;;7.93;100.00
8318;BME280;4196;48.926;8.964;2022-11-28T14:25:55;98661.81;;;7.83;100.00
8318;BME280;4196;48.926;8.964;2022-11-28T14:28:43;98672.09;;;7.75;100.00
8318;BME280;4196;48.926;8.964;2022-11-28T14:31:36;98672.97;;;7.75;100.00
8318;BME280;4196;48.926;8.964;2022-11-28T14:34:39;98676.38;;;7.73;100.00
8318;BME280;4196;48.926;8.964;2022-11-28T14:43:46;98690.97;;;7.56;100.00
8318;BME280;4196;48.926;8.964;2022-11-28T14:46:32;98683.19;;;7.49;100.00
8318;BME280;4196;48.926;8.964;2022-11-28T14:49:20;98676.31;;;7.50;100.00
8318;BME280;4196;48.926;8.964;2022-11-28T14:55:23;98686.63;;;7.45;100.00
8318;BME280;4196;48.926;8.964;2022-11-28T14:58:14;98690.03;;;7.46;100.00
8318;BME280;4196;48.926;8.964;2022-11-28T15:01:05;98696.03;;;7.42;100.00
8318;BME280;4196;48.926;8.964;2022-11-28T15:04:04;98695.97;;;7.25;100.00
8318;BME280;4196;48.926;8.964;2022-11-28T15:06:54;98700.22;;;7.15;100.00
8318;BME280;4196;48.926;8.964;2022-11-28T15:13:23;98698.38;;;6.94;100.00
8318;BME280;4196;48.926;8.964;2022-11-28T15:16:13;98682.06;;;6.89;100.00
8318;BME280;4196;48.926;8.964;2022-11-28T15:19:11;98691.44;;;6.84;100.00
8318;BME280;4196;48.926;8.964;2022-11-28T15:22:00;98687.25;;;6.98;100.00
8318;BME280;4196;48.926;8.964;2022-11-28T15:24:51;98690.59;;;6.82;100.00
8318;BME280;4196;48.926;8.964;2022-11-28T15:27:37;98691.38;;;6.72;100.00
8318;BME280;4196;48.926;8.964;2022-11-28T15:30:25;98692.25;;;6.74;100.00
8318;BME280;4196;48.926;8.964;2022-11-28T15:33:12;98690.50;;;6.70;100.00
8318;BME280;4196;48.926;8.964;2022-11-28T15:36:02;98693.88;;;6.61;100.00
8318;BME280;4196;48.926;8.964;2022-11-28T15:38:56;98674.94;;;6.48;100.00
8318;BME280;4196;48.926;8.964;2022-11-28T15:41:44;98690.44;;;6.61;100.00
8318;BME280;4196;48.926;8.964;2022-11-28T15:44:31;98695.56;;;6.58;100.00
8318;BME280;4196;48.926;8.964;2022-11-28T15:47:19;98692.03;;;6.46;100.00
8318;BME280;4196;48.926;8.964;2022-11-28T15:53:01;98695.41;;;6.39;100.00
8318;BME280;4196;48.926;8.964;2022-11-28T15:56:09;98687.63;;;6.33;100.00
8318;BME280;4196;48.926;8.964;2022-11-28T15:58:56;98691.97;;;6.34;100.00
8318;BME280;4196;48.926;8.964;2022-11-28T16:01:43;98697.06;;;6.31;100.00
8318;BME280;4196;48.926;8.964;2022-11-28T16:04:30;98692.72;;;6.24;100.00
8318;BME280;4196;48.926;8.964;2022-11-28T16:07:16;98691.78;;;6.16;100.00
8318;BME280;4196;48.926;8.964;2022-11-28T16:10:05;98702.16;;;6.25;100.00
8318;BME280;4196;48.926;8.964;2022-11-28T16:13:00;98700.41;;;6.21;100.00
8318;BME280;4196;48.926;8.964;2022-11-28T16:15:49;98703.94;;;6.32;100.00
8318;BME280;4196;48.926;8.964;2022-11-28T16:18:42;98704.81;;;6.34;100.00
8318;BME280;4196;48.926;8.964;2022-11-28T16:21:44;98705.59;;;6.28;100.00
8318;BME280;4196;48.926;8.964;2022-11-28T16:24:43;98683.31;;;6.29;100.00
8318;BME280;4196;48.926;8.964;2022-11-28T16:39:16;98697.13;;;6.40;100.00
8318;BME280;4196;48.926;8.964;2022-11-28T16:42:14;98704.81;;;6.34;100.00
8318;BME280;4196;48.926;8.964;2022-11-28T16:45:10;98704.81;;;6.36;100.00
8318;BME280;4196;48.926;8.964;2022-11-28T16:48:06;98714.22;;;6.31;100.00
8318;BME280;4196;48.926;8.964;2022-11-28T16:53:50;98709.75;;;6.14;100.00
8318;BME280;4196;48.926;8.964;2022-11-28T16:59:24;98708.88;;;6.11;100.00
8318;BME280;4196;48.926;8.964;2022-11-28T17:02:23;98708.00;;;6.09;100.00
8318;BME280;4196;48.926;8.964;2022-11-28T17:05:09;98640.78;;;5.67;100.00
8318;BME280;4196;48.926;8.964;2022-11-28T17:07:56;98714.00;;;6.08;100.00
8318;BME280;4196;48.926;8.964;2022-11-28T17:10:43;98710.59;;;6.09;100.00
8318;BME280;4196;48.926;8.964;2022-11-28T17:13:31;98710.63;;;6.12;100.00
8318;BME280;4196;48.926;8.964;2022-11-28T17:16:21;98713.19;;;6.15;100.00
8318;BME280;4196;48.926;8.964;2022-11-28T17:19:08;98702.00;;;6.10;100.00
8318;BME280;4196;48.926;8.964;2022-11-28T17:21:56;98689.94;;;6.02;100.00
8318;BME280;4196;48.926;8.964;2022-11-28T17:24:44;98708.88;;;6.08;100.00
8318;BME280;4196;48.926;8.964;2022-11-28T17:27:32;98725.97;;;6.05;100.00
8318;BME280;4196;48.926;8.964;2022-11-28T17:30:18;98714.00;;;6.08;100.00
8318;BME280;4196;48.926;8.964;2022-11-28T17:33:05;98697.59;;;5.96;100.00
8318;BME280;4196;48.926;8.964;2022-11-28T17:35:52;98717.44;;;6.10;100.00
8318;BME280;4196;48.926;8.964;2022-11-28T17:38:39;98722.53;;;6.07;100.00
8318;BME280;4196;48.926;8.964;2022-11-28T17:41:26;98716.56;;;6.09;100.00
8318;BME280;4196;48.926;8.964;2022-11-28T17:47:12;98721.72;;;6.08;100.00
8318;BME280;4196;48.926;8.964;2022-11-28T17:49:58;98713.19;;;6.15;100.00
8318;BME280;4196;48.926;8.964;2022-11-28T17:52:45;98718.44;;;6.24;100.00
8318;BME280;4196;48.926;8.964;2022-11-28T17:55:32;98697.72;;;6.10;100.00
8318;BME280;4196;48.926;8.964;2022-11-28T17:58:21;98708.91;;;6.14;100.00
8318;BME280;4196;48.926;8.964;2022-11-28T18:01:15;98710.63;;;6.15;100.00
8318;BME280;4196;48.926;8.964;2022-11-28T18:04:03;98710.72;;;6.24;100.00
8318;BME280;4196;48.926;8.964;2022-11-28T18:06:50;98700.25;;;6.05;100.00
8318;BME280;4196;48.926;8.964;2022-11-28T18:09:36;98708.94;;;6.17;100.00
8318;BME280;4196;48.926;8.964;2022-11-28T18:12:23;98701.06;;;5.98;100.00
8318;BME280;4196;48.926;8.964;2022-11-28T18:15:11;98716.50;;;6.03;100.00
8318;BME280;4196;48.926;8.964;2022-11-28T18:17:58;98707.91;;;5.98;100.00
8318;BME280;4196;48.926;8.964;2022-11-28T18:20:44;98719.84;;;5.94;100.00
8318;BME280;4196;48.926;8.964;2022-11-28T18:23:31;98715.63;;;5.99;100.00
8318;BME280;4196;48.926;8.964;2022-11-28T18:26:20;98724.19;;;5.98;100.00
8318;BME280;4196;48.926;8.964;2022-11-28T18:29:08;98716.34;;;5.89;100.00
8318;BME280;4196;48.926;8.964;2022-11-28T18:31:56;98714.88;;;6.11;100.00
8318;BME280;4196;48.926;8.964;2022-11-28T18:34:42;98708.88;;;6.08;100.00
8318;BME280;4196;48.926;8.964;2022-11-28T18:37:29;98720.91;;;6.12;100.00
8318;BME280;4196;48.926;8.964;2022-11-28T18:40:16;98722.63;;;6.14;100.00
8318;BME280;4196;48.926;8.964;2022-11-28T18:43:03;98726.06;;;6.18;100.00
8318;BME280;4196;48.926;8.964;2022-11-28T18:45:52;98724.34;;;6.17;100.00
8318;BME280;4196;48.926;8.964;2022-11-28T18:48:41;98734.59;;;6.12;100.00
8318;BME280;4196;48.926;8.964;2022-11-28T18:51:33;98717.47;;;6.13;100.00